Tsimlyansk, Russia
Current Conditions -  °F | °C
As of 4:30 AM on Wednesday 26 Nov 2014 (Local Time) from URRR Reporting Station
Overcast Overcast  
Wind Chill:   Ceiling: 1600
Heat Index: 21°   Visibility: 5mi
Dew Point: 18°   Wind: 16mph
Humidity: 86%   Direction: 70°ENE
Pressure: 30.36"   Gusts: 22mph
Location:  47.65°N, 42.1°E
Report Text: URRR 260130Z 07007G10MPS 8000 OVC016 M06/M08 Q1028 04320045NOSIG
Loading
Personal Weather Stations






























Interactive Weather Map New forecast layout! Learn more

10-Day Weather Forecast

Advertisements
Track Severe Weather on mobile